sensor_id;sensor_type;location;lat;lon;timestamp;P1;durP1;ratioP1;P2;durP2;ratioP2
37303;SDS011;23188;51.188;16.374;2024-01-25T00:01:05;9.50;;;4.60;;
37303;SDS011;23188;51.188;16.374;2024-01-25T00:05:17;11.00;;;4.10;;
37303;SDS011;23188;51.188;16.374;2024-01-25T00:09:19;10.10;;;3.90;;
37303;SDS011;23188;51.188;16.374;2024-01-25T00:13:21;10.10;;;3.00;;
37303;SDS011;23188;51.188;16.374;2024-01-25T00:17:24;10.00;;;2.70;;
37303;SDS011;23188;51.188;16.374;2024-01-25T00:21:26;5.90;;;2.10;;
37303;SDS011;23188;51.188;16.374;2024-01-25T00:25:29;16.00;;;4.40;;
37303;SDS011;23188;51.188;16.374;2024-01-25T00:29:31;12.60;;;4.50;;
37303;SDS011;23188;51.188;16.374;2024-01-25T00:33:37;6.90;;;2.70;;
37303;SDS011;23188;51.188;16.374;2024-01-25T00:37:40;6.80;;;3.10;;
37303;SDS011;23188;51.188;16.374;2024-01-25T00:41:42;15.10;;;3.10;;
37303;SDS011;23188;51.188;16.374;2024-01-25T00:45:48;8.20;;;3.00;;
37303;SDS011;23188;51.188;16.374;2024-01-25T00:49:51;10.70;;;3.00;;
37303;SDS011;23188;51.188;16.374;2024-01-25T00:53:54;6.40;;;2.90;;
37303;SDS011;23188;51.188;16.374;2024-01-25T00:57:58;8.70;;;4.60;;
37303;SDS011;23188;51.188;16.374;2024-01-25T01:02:02;9.20;;;3.30;;
37303;SDS011;23188;51.188;16.374;2024-01-25T01:10:19;9.90;;;4.10;;
37303;SDS011;23188;51.188;16.374;2024-01-25T01:14:23;10.20;;;3.90;;
37303;SDS011;23188;51.188;16.374;2024-01-25T01:18:25;8.30;;;4.10;;
37303;SDS011;23188;51.188;16.374;2024-01-25T01:22:27;9.70;;;3.30;;
37303;SDS011;23188;51.188;16.374;2024-01-25T01:26:31;8.10;;;4.10;;
37303;SDS011;23188;51.188;16.374;2024-01-25T01:34:45;9.60;;;3.40;;
37303;SDS011;23188;51.188;16.374;2024-01-25T01:38:48;9.50;;;3.10;;
37303;SDS011;23188;51.188;16.374;2024-01-25T01:42:51;8.30;;;2.20;;
37303;SDS011;23188;51.188;16.374;2024-01-25T01:46:59;10.40;;;3.40;;
37303;SDS011;23188;51.188;16.374;2024-01-25T01:51:02;8.80;;;4.00;;
37303;SDS011;23188;51.188;16.374;2024-01-25T01:55:06;11.10;;;3.40;;
37303;SDS011;23188;51.188;16.374;2024-01-25T01:59:09;15.20;;;4.20;;
37303;SDS011;23188;51.188;16.374;2024-01-25T02:03:13;13.30;;;3.30;;
37303;SDS011;23188;51.188;16.374;2024-01-25T02:07:15;11.70;;;3.40;;
37303;SDS011;23188;51.188;16.374;2024-01-25T02:11:21;10.30;;;3.60;;
37303;SDS011;23188;51.188;16.374;2024-01-25T02:15:23;6.80;;;2.40;;
37303;SDS011;23188;51.188;16.374;2024-01-25T02:19:26;16.30;;;3.70;;
37303;SDS011;23188;51.188;16.374;2024-01-25T02:23:28;27.70;;;3.80;;
37303;SDS011;23188;51.188;16.374;2024-01-25T02:27:30;8.70;;;3.80;;
37303;SDS011;23188;51.188;16.374;2024-01-25T02:31:32;8.30;;;3.50;;
37303;SDS011;23188;51.188;16.374;2024-01-25T02:35:34;12.70;;;3.00;;
37303;SDS011;23188;51.188;16.374;2024-01-25T02:39:36;5.70;;;2.60;;
37303;SDS011;23188;51.188;16.374;2024-01-25T02:43:38;9.10;;;3.50;;
37303;SDS011;23188;51.188;16.374;2024-01-25T02:47:41;26.20;;;5.80;;
37303;SDS011;23188;51.188;16.374;2024-01-25T02:51:45;10.40;;;2.90;;
37303;SDS011;23188;51.188;16.374;2024-01-25T02:55:48;10.00;;;3.10;;
37303;SDS011;23188;51.188;16.374;2024-01-25T02:59:52;9.50;;;2.20;;
37303;SDS011;23188;51.188;16.374;2024-01-25T03:03:53;9.90;;;4.40;;
37303;SDS011;23188;51.188;16.374;2024-01-25T03:07:56;11.40;;;2.60;;
37303;SDS011;23188;51.188;16.374;2024-01-25T03:12:00;13.20;;;3.60;;
37303;SDS011;23188;51.188;16.374;2024-01-25T03:16:03;14.40;;;5.10;;
37303;SDS011;23188;51.188;16.374;2024-01-25T03:20:07;10.40;;;3.00;;
37303;SDS011;23188;51.188;16.374;2024-01-25T03:24:10;20.50;;;3.30;;
37303;SDS011;23188;51.188;16.374;2024-01-25T03:28:12;7.50;;;2.90;;
37303;SDS011;23188;51.188;16.374;2024-01-25T03:32:16;10.90;;;3.30;;
37303;SDS011;23188;51.188;16.374;2024-01-25T03:36:20;12.60;;;2.80;;
37303;SDS011;23188;51.188;16.374;2024-01-25T03:40:23;10.30;;;3.50;;
37303;SDS011;23188;51.188;16.374;2024-01-25T03:44:25;11.70;;;3.80;;
37303;SDS011;23188;51.188;16.374;2024-01-25T03:52:58;11.60;;;2.90;;
37303;SDS011;23188;51.188;16.374;2024-01-25T03:57:00;8.70;;;3.40;;
37303;SDS011;23188;51.188;16.374;2024-01-25T04:01:02;12.90;;;4.50;;
37303;SDS011;23188;51.188;16.374;2024-01-25T04:05:05;12.00;;;4.00;;
37303;SDS011;23188;51.188;16.374;2024-01-25T04:09:08;10.90;;;4.50;;
37303;SDS011;23188;51.188;16.374;2024-01-25T04:13:11;6.30;;;3.40;;
37303;SDS011;23188;51.188;16.374;2024-01-25T04:17:13;5.30;;;2.70;;
37303;SDS011;23188;51.188;16.374;2024-01-25T04:21:14;13.60;;;3.50;;
37303;SDS011;23188;51.188;16.374;2024-01-25T04:25:22;5.90;;;2.70;;
37303;SDS011;23188;51.188;16.374;2024-01-25T04:29:24;14.50;;;4.60;;
37303;SDS011;23188;51.188;16.374;2024-01-25T04:37:32;14.00;;;4.40;;
37303;SDS011;23188;51.188;16.374;2024-01-25T04:41:37;3.90;;;2.60;;
37303;SDS011;23188;51.188;16.374;2024-01-25T04:45:39;14.70;;;4.30;;
37303;SDS011;23188;51.188;16.374;2024-01-25T04:49:45;8.30;;;3.40;;
37303;SDS011;23188;51.188;16.374;2024-01-25T04:53:48;12.00;;;3.40;;
37303;SDS011;23188;51.188;16.374;2024-01-25T04:57:51;13.40;;;3.70;;
37303;SDS011;23188;51.188;16.374;2024-01-25T05:01:55;7.50;;;4.30;;
37303;SDS011;23188;51.188;16.374;2024-01-25T05:06:08;10.00;;;4.30;;
37303;SDS011;23188;51.188;16.374;2024-01-25T05:10:10;13.40;;;4.00;;
37303;SDS011;23188;51.188;16.374;2024-01-25T05:14:12;8.60;;;3.70;;
37303;SDS011;23188;51.188;16.374;2024-01-25T05:18:13;8.60;;;3.10;;
37303;SDS011;23188;51.188;16.374;2024-01-25T05:22:15;7.20;;;3.00;;
37303;SDS011;23188;51.188;16.374;2024-01-25T05:26:20;14.80;;;5.80;;
37303;SDS011;23188;51.188;16.374;2024-01-25T05:30:23;14.30;;;3.70;;
37303;SDS011;23188;51.188;16.374;2024-01-25T05:34:26;17.70;;;4.70;;
37303;SDS011;23188;51.188;16.374;2024-01-25T05:38:33;7.20;;;3.20;;
37303;SDS011;23188;51.188;16.374;2024-01-25T05:42:35;14.80;;;4.00;;
37303;SDS011;23188;51.188;16.374;2024-01-25T05:46:50;12.90;;;4.40;;
37303;SDS011;23188;51.188;16.374;2024-01-25T05:50:53;13.80;;;3.80;;
37303;SDS011;23188;51.188;16.374;2024-01-25T05:54:55;12.70;;;3.30;;
37303;SDS011;23188;51.188;16.374;2024-01-25T05:58:57;29.90;;;7.00;;
37303;SDS011;23188;51.188;16.374;2024-01-25T06:02:59;12.40;;;4.60;;
37303;SDS011;23188;51.188;16.374;2024-01-25T06:07:01;20.10;;;4.90;;
37303;SDS011;23188;51.188;16.374;2024-01-25T06:11:04;14.80;;;3.50;;
37303;SDS011;23188;51.188;16.374;2024-01-25T06:15:06;33.40;;;4.40;;
37303;SDS011;23188;51.188;16.374;2024-01-25T06:19:09;7.80;;;4.10;;
37303;SDS011;23188;51.188;16.374;2024-01-25T06:23:13;17.10;;;4.50;;
37303;SDS011;23188;51.188;16.374;2024-01-25T06:27:15;15.40;;;4.50;;
37303;SDS011;23188;51.188;16.374;2024-01-25T06:31:17;11.20;;;4.30;;
37303;SDS011;23188;51.188;16.374;2024-01-25T06:35:25;25.30;;;6.10;;
37303;SDS011;23188;51.188;16.374;2024-01-25T06:39:30;11.60;;;3.80;;
37303;SDS011;23188;51.188;16.374;2024-01-25T06:43:33;19.90;;;4.10;;
37303;SDS011;23188;51.188;16.374;2024-01-25T06:47:35;11.60;;;4.40;;
37303;SDS011;23188;51.188;16.374;2024-01-25T06:51:39;15.40;;;4.00;;
37303;SDS011;23188;51.188;16.374;2024-01-25T07:00:11;14.90;;;4.20;;
37303;SDS011;23188;51.188;16.374;2024-01-25T07:04:17;15.90;;;5.40;;
37303;SDS011;23188;51.188;16.374;2024-01-25T07:08:21;7.50;;;3.40;;
37303;SDS011;23188;51.188;16.374;2024-01-25T07:21:50;11.90;;;4.00;;
37303;SDS011;23188;51.188;16.374;2024-01-25T07:25:52;10.60;;;2.70;;
37303;SDS011;23188;51.188;16.374;2024-01-25T07:29:54;18.10;;;4.60;;
37303;SDS011;23188;51.188;16.374;2024-01-25T07:33:58;18.90;;;4.80;;
37303;SDS011;23188;51.188;16.374;2024-01-25T07:38:00;16.20;;;4.70;;
37303;SDS011;23188;51.188;16.374;2024-01-25T07:42:02;17.60;;;4.70;;
37303;SDS011;23188;51.188;16.374;2024-01-25T07:46:04;12.70;;;4.00;;
37303;SDS011;23188;51.188;16.374;2024-01-25T07:50:06;7.50;;;3.10;;
37303;SDS011;23188;51.188;16.374;2024-01-25T07:54:10;14.40;;;2.80;;
37303;SDS011;23188;51.188;16.374;2024-01-25T07:58:12;6.80;;;3.00;;
37303;SDS011;23188;51.188;16.374;2024-01-25T08:02:15;14.50;;;3.60;;
37303;SDS011;23188;51.188;16.374;2024-01-25T08:06:36;6.60;;;3.20;;
37303;SDS011;23188;51.188;16.374;2024-01-25T08:10:45;10.00;;;2.70;;
37303;SDS011;23188;51.188;16.374;2024-01-25T08:14:48;9.10;;;3.80;;
37303;SDS011;23188;51.188;16.374;2024-01-25T08:18:51;17.40;;;3.80;;
37303;SDS011;23188;51.188;16.374;2024-01-25T08:22:54;10.00;;;3.60;;
37303;SDS011;23188;51.188;16.374;2024-01-25T08:26:56;13.00;;;3.20;;
37303;SDS011;23188;51.188;16.374;2024-01-25T08:30:58;7.40;;;3.30;;
37303;SDS011;23188;51.188;16.374;2024-01-25T08:35:00;12.10;;;3.70;;
37303;SDS011;23188;51.188;16.374;2024-01-25T08:39:03;11.80;;;3.10;;
37303;SDS011;23188;51.188;16.374;2024-01-25T08:43:06;16.90;;;3.30;;
37303;SDS011;23188;51.188;16.374;2024-01-25T08:47:09;5.00;;;3.00;;
37303;SDS011;23188;51.188;16.374;2024-01-25T08:55:27;16.20;;;4.20;;
37303;SDS011;23188;51.188;16.374;2024-01-25T08:59:32;17.60;;;3.80;;
37303;SDS011;23188;51.188;16.374;2024-01-25T09:03:39;22.90;;;5.10;;
37303;SDS011;23188;51.188;16.374;2024-01-25T09:07:41;10.50;;;4.70;;
37303;SDS011;23188;51.188;16.374;2024-01-25T09:16:16;22.20;;;4.40;;
37303;SDS011;23188;51.188;16.374;2024-01-25T09:20:18;14.70;;;3.10;;
37303;SDS011;23188;51.188;16.374;2024-01-25T09:24:27;10.30;;;4.80;;
37303;SDS011;23188;51.188;16.374;2024-01-25T09:28:29;9.40;;;4.20;;
37303;SDS011;23188;51.188;16.374;2024-01-25T09:32:36;9.00;;;4.30;;
37303;SDS011;23188;51.188;16.374;2024-01-25T09:36:38;11.40;;;5.10;;
37303;SDS011;23188;51.188;16.374;2024-01-25T09:40:48;5.90;;;2.90;;
37303;SDS011;23188;51.188;16.374;2024-01-25T09:44:53;10.10;;;4.00;;
37303;SDS011;23188;51.188;16.374;2024-01-25T09:48:56;16.90;;;3.70;;
37303;SDS011;23188;51.188;16.374;2024-01-25T09:53:01;12.30;;;3.50;;
37303;SDS011;23188;51.188;16.374;2024-01-25T09:57:10;16.20;;;4.50;;
37303;SDS011;23188;51.188;16.374;2024-01-25T10:01:19;10.60;;;4.80;;
37303;SDS011;23188;51.188;16.374;2024-01-25T10:05:23;14.00;;;3.80;;
37303;SDS011;23188;51.188;16.374;2024-01-25T10:09:26;13.60;;;3.30;;
37303;SDS011;23188;51.188;16.374;2024-01-25T10:13:31;12.60;;;5.00;;
37303;SDS011;23188;51.188;16.374;2024-01-25T10:17:33;8.60;;;3.10;;
37303;SDS011;23188;51.188;16.374;2024-01-25T10:22:05;12.90;;;5.10;;
37303;SDS011;23188;51.188;16.374;2024-01-25T10:26:13;20.20;;;4.70;;
37303;SDS011;23188;51.188;16.374;2024-01-25T10:30:16;17.00;;;3.90;;
37303;SDS011;23188;51.188;16.374;2024-01-25T10:34:18;11.50;;;2.30;;
37303;SDS011;23188;51.188;16.374;2024-01-25T10:38:23;13.30;;;4.40;;
37303;SDS011;23188;51.188;16.374;2024-01-25T10:42:28;11.70;;;4.10;;
37303;SDS011;23188;51.188;16.374;2024-01-25T10:46:30;10.20;;;3.30;;
37303;SDS011;23188;51.188;16.374;2024-01-25T10:50:35;13.80;;;3.80;;
37303;SDS011;23188;51.188;16.374;2024-01-25T10:54:37;19.90;;;4.80;;
37303;SDS011;23188;51.188;16.374;2024-01-25T10:58:41;11.10;;;4.80;;
37303;SDS011;23188;51.188;16.374;2024-01-25T11:03:01;14.30;;;3.50;;
37303;SDS011;23188;51.188;16.374;2024-01-25T11:07:04;19.00;;;3.70;;
37303;SDS011;23188;51.188;16.374;2024-01-25T11:11:14;18.70;;;3.80;;
37303;SDS011;23188;51.188;16.374;2024-01-25T11:15:23;11.60;;;3.30;;
37303;SDS011;23188;51.188;16.374;2024-01-25T11:19:33;11.90;;;3.70;;
37303;SDS011;23188;51.188;16.374;2024-01-25T11:23:36;10.50;;;3.40;;
37303;SDS011;23188;51.188;16.374;2024-01-25T11:27:37;11.90;;;4.20;;
37303;SDS011;23188;51.188;16.374;2024-01-25T11:31:40;20.10;;;7.40;;
37303;SDS011;23188;51.188;16.374;2024-01-25T11:35:53;10.50;;;3.20;;
37303;SDS011;23188;51.188;16.374;2024-01-25T11:39:57;5.80;;;3.40;;
37303;SDS011;23188;51.188;16.374;2024-01-25T11:44:03;14.80;;;4.90;;
37303;SDS011;23188;51.188;16.374;2024-01-25T11:48:06;18.00;;;8.00;;
37303;SDS011;23188;51.188;16.374;2024-01-25T11:52:08;20.80;;;5.80;;
37303;SDS011;23188;51.188;16.374;2024-01-25T11:56:12;9.20;;;3.90;;
37303;SDS011;23188;51.188;16.374;2024-01-25T12:00:19;13.90;;;3.20;;
37303;SDS011;23188;51.188;16.374;2024-01-25T12:04:21;19.90;;;3.90;;
37303;SDS011;23188;51.188;16.374;2024-01-25T12:08:25;8.90;;;3.70;;
37303;SDS011;23188;51.188;16.374;2024-01-25T12:12:27;10.30;;;3.30;;
37303;SDS011;23188;51.188;16.374;2024-01-25T12:16:30;15.70;;;3.20;;
37303;SDS011;23188;51.188;16.374;2024-01-25T12:24:38;14.20;;;3.60;;
37303;SDS011;23188;51.188;16.374;2024-01-25T12:28:56;13.90;;;5.20;;
37303;SDS011;23188;51.188;16.374;2024-01-25T12:37:08;11.60;;;3.60;;
37303;SDS011;23188;51.188;16.374;2024-01-25T12:41:10;14.80;;;3.20;;
37303;SDS011;23188;51.188;16.374;2024-01-25T12:45:14;16.40;;;5.30;;
37303;SDS011;23188;51.188;16.374;2024-01-25T12:49:17;10.50;;;3.70;;
37303;SDS011;23188;51.188;16.374;2024-01-25T12:57:53;15.20;;;3.10;;
37303;SDS011;23188;51.188;16.374;2024-01-25T13:06:55;12.30;;;3.40;;
37303;SDS011;23188;51.188;16.374;2024-01-25T13:11:01;11.50;;;3.20;;
37303;SDS011;23188;51.188;16.374;2024-01-25T13:15:04;10.20;;;4.60;;
37303;SDS011;23188;51.188;16.374;2024-01-25T13:19:12;11.60;;;4.40;;
37303;SDS011;23188;51.188;16.374;2024-01-25T13:23:14;27.30;;;9.50;;
37303;SDS011;23188;51.188;16.374;2024-01-25T13:27:20;19.10;;;5.60;;
37303;SDS011;23188;51.188;16.374;2024-01-25T13:31:22;18.90;;;4.80;;
37303;SDS011;23188;51.188;16.374;2024-01-25T13:35:25;13.10;;;4.00;;
37303;SDS011;23188;51.188;16.374;2024-01-25T13:39:32;10.30;;;3.50;;
37303;SDS011;23188;51.188;16.374;2024-01-25T13:43:34;8.30;;;2.80;;
37303;SDS011;23188;51.188;16.374;2024-01-25T13:52:05;7.80;;;4.00;;
37303;SDS011;23188;51.188;16.374;2024-01-25T13:56:07;13.80;;;4.20;;
37303;SDS011;23188;51.188;16.374;2024-01-25T14:00:10;29.00;;;7.40;;
37303;SDS011;23188;51.188;16.374;2024-01-25T14:04:12;9.60;;;3.60;;
37303;SDS011;23188;51.188;16.374;2024-01-25T14:08:16;10.80;;;4.80;;
37303;SDS011;23188;51.188;16.374;2024-01-25T14:12:19;23.00;;;5.80;;
37303;SDS011;23188;51.188;16.374;2024-01-25T14:16:21;12.70;;;5.00;;
37303;SDS011;23188;51.188;16.374;2024-01-25T14:20:26;13.50;;;4.10;;
37303;SDS011;23188;51.188;16.374;2024-01-25T14:24:28;15.20;;;5.20;;
37303;SDS011;23188;51.188;16.374;2024-01-25T14:32:43;19.90;;;6.80;;
37303;SDS011;23188;51.188;16.374;2024-01-25T14:41:15;8.80;;;4.80;;
37303;SDS011;23188;51.188;16.374;2024-01-25T14:49:23;13.70;;;7.30;;
37303;SDS011;23188;51.188;16.374;2024-01-25T14:53:25;15.50;;;5.10;;
37303;SDS011;23188;51.188;16.374;2024-01-25T14:57:44;15.70;;;6.60;;
37303;SDS011;23188;51.188;16.374;2024-01-25T15:01:49;13.00;;;4.10;;
37303;SDS011;23188;51.188;16.374;2024-01-25T15:13:41;10.10;;;4.20;;
37303;SDS011;23188;51.188;16.374;2024-01-25T15:17:44;12.30;;;5.50;;
37303;SDS011;23188;51.188;16.374;2024-01-25T15:21:47;26.10;;;5.70;;
37303;SDS011;23188;51.188;16.374;2024-01-25T15:25:50;11.80;;;5.80;;
37303;SDS011;23188;51.188;16.374;2024-01-25T15:29:53;16.30;;;6.10;;
37303;SDS011;23188;51.188;16.374;2024-01-25T15:33:56;17.90;;;4.30;;
37303;SDS011;23188;51.188;16.374;2024-01-25T15:38:00;16.50;;;5.20;;
37303;SDS011;23188;51.188;16.374;2024-01-25T15:42:08;8.70;;;4.70;;
37303;SDS011;23188;51.188;16.374;2024-01-25T15:46:11;11.10;;;3.30;;
37303;SDS011;23188;51.188;16.374;2024-01-25T15:50:17;10.20;;;4.30;;
37303;SDS011;23188;51.188;16.374;2024-01-25T15:54:23;15.60;;;6.40;;
37303;SDS011;23188;51.188;16.374;2024-01-25T15:58:26;15.20;;;4.10;;
37303;SDS011;23188;51.188;16.374;2024-01-25T16:02:30;15.20;;;4.80;;
37303;SDS011;23188;51.188;16.374;2024-01-25T16:06:33;20.70;;;7.10;;
37303;SDS011;23188;51.188;16.374;2024-01-25T16:10:36;22.30;;;5.10;;
37303;SDS011;23188;51.188;16.374;2024-01-25T16:14:39;7.50;;;3.50;;
37303;SDS011;23188;51.188;16.374;2024-01-25T16:18:43;11.50;;;3.50;;
37303;SDS011;23188;51.188;16.374;2024-01-25T16:22:46;10.20;;;3.90;;
37303;SDS011;23188;51.188;16.374;2024-01-25T16:26:50;17.30;;;6.00;;
37303;SDS011;23188;51.188;16.374;2024-01-25T16:30:53;12.20;;;5.90;;
37303;SDS011;23188;51.188;16.374;2024-01-25T16:34:56;11.60;;;5.10;;
37303;SDS011;23188;51.188;16.374;2024-01-25T16:39:00;20.40;;;6.40;;
37303;SDS011;23188;51.188;16.374;2024-01-25T16:43:03;19.80;;;4.60;;
37303;SDS011;23188;51.188;16.374;2024-01-25T16:47:07;16.90;;;7.10;;
37303;SDS011;23188;51.188;16.374;2024-01-25T16:51:10;12.50;;;4.00;;
37303;SDS011;23188;51.188;16.374;2024-01-25T16:55:14;17.30;;;4.50;;
37303;SDS011;23188;51.188;16.374;2024-01-25T16:59:17;10.00;;;5.10;;
37303;SDS011;23188;51.188;16.374;2024-01-25T17:03:20;19.50;;;5.90;;
37303;SDS011;23188;51.188;16.374;2024-01-25T17:07:24;14.30;;;4.90;;
37303;SDS011;23188;51.188;16.374;2024-01-25T17:11:27;14.40;;;5.70;;
37303;SDS011;23188;51.188;16.374;2024-01-25T17:15:31;17.10;;;5.60;;
37303;SDS011;23188;51.188;16.374;2024-01-25T17:19:35;17.30;;;6.70;;
37303;SDS011;23188;51.188;16.374;2024-01-25T17:23:39;6.00;;;4.40;;
37303;SDS011;23188;51.188;16.374;2024-01-25T17:27:42;9.70;;;5.00;;
37303;SDS011;23188;51.188;16.374;2024-01-25T17:31:45;17.90;;;6.10;;
37303;SDS011;23188;51.188;16.374;2024-01-25T17:35:48;10.80;;;5.20;;
37303;SDS011;23188;51.188;16.374;2024-01-25T17:39:52;7.30;;;4.00;;
37303;SDS011;23188;51.188;16.374;2024-01-25T17:43:56;16.20;;;5.50;;
37303;SDS011;23188;51.188;16.374;2024-01-25T17:48:00;11.10;;;4.40;;
37303;SDS011;23188;51.188;16.374;2024-01-25T17:52:03;20.30;;;8.40;;
37303;SDS011;23188;51.188;16.374;2024-01-25T17:56:06;10.10;;;5.00;;
37303;SDS011;23188;51.188;16.374;2024-01-25T18:00:10;7.80;;;3.60;;
37303;SDS011;23188;51.188;16.374;2024-01-25T18:04:13;14.00;;;4.80;;
37303;SDS011;23188;51.188;16.374;2024-01-25T18:08:16;11.40;;;5.30;;
37303;SDS011;23188;51.188;16.374;2024-01-25T18:12:19;19.40;;;5.70;;
37303;SDS011;23188;51.188;16.374;2024-01-25T18:16:23;13.60;;;5.30;;
37303;SDS011;23188;51.188;16.374;2024-01-25T18:20:26;13.40;;;4.20;;
37303;SDS011;23188;51.188;16.374;2024-01-25T18:24:29;17.00;;;7.30;;
37303;SDS011;23188;51.188;16.374;2024-01-25T18:28:32;18.60;;;6.50;;
37303;SDS011;23188;51.188;16.374;2024-01-25T18:32:35;13.00;;;5.20;;
37303;SDS011;23188;51.188;16.374;2024-01-25T18:36:38;18.70;;;5.50;;
37303;SDS011;23188;51.188;16.374;2024-01-25T18:40:41;14.10;;;5.20;;
37303;SDS011;23188;51.188;16.374;2024-01-25T18:44:45;7.40;;;4.70;;
37303;SDS011;23188;51.188;16.374;2024-01-25T18:48:48;20.90;;;5.70;;
37303;SDS011;23188;51.188;16.374;2024-01-25T18:52:51;11.20;;;5.00;;
37303;SDS011;23188;51.188;16.374;2024-01-25T18:56:54;13.70;;;7.20;;
37303;SDS011;23188;51.188;16.374;2024-01-25T19:00:58;16.60;;;8.40;;
37303;SDS011;23188;51.188;16.374;2024-01-25T19:05:01;19.60;;;8.60;;
37303;SDS011;23188;51.188;16.374;2024-01-25T19:09:05;33.50;;;5.90;;
37303;SDS011;23188;51.188;16.374;2024-01-25T19:13:09;8.10;;;4.00;;
37303;SDS011;23188;51.188;16.374;2024-01-25T19:17:12;15.10;;;6.70;;
37303;SDS011;23188;51.188;16.374;2024-01-25T19:21:15;100.10;;;43.70;;
37303;SDS011;23188;51.188;16.374;2024-01-25T19:25:18;315.70;;;117.20;;
37303;SDS011;23188;51.188;16.374;2024-01-25T19:29:22;216.10;;;93.60;;
37303;SDS011;23188;51.188;16.374;2024-01-25T19:33:26;88.70;;;38.10;;
37303;SDS011;23188;51.188;16.374;2024-01-25T19:37:32;54.80;;;20.70;;
37303;SDS011;23188;51.188;16.374;2024-01-25T19:41:35;21.80;;;5.80;;
37303;SDS011;23188;51.188;16.374;2024-01-25T19:45:39;10.60;;;7.10;;
37303;SDS011;23188;51.188;16.374;2024-01-25T19:49:42;17.10;;;5.80;;
37303;SDS011;23188;51.188;16.374;2024-01-25T19:53:45;10.10;;;5.10;;
37303;SDS011;23188;51.188;16.374;2024-01-25T19:57:48;15.90;;;6.20;;
37303;SDS011;23188;51.188;16.374;2024-01-25T20:01:52;15.00;;;7.70;;
37303;SDS011;23188;51.188;16.374;2024-01-25T20:05:56;19.10;;;7.80;;
37303;SDS011;23188;51.188;16.374;2024-01-25T20:10:00;20.80;;;6.90;;
37303;SDS011;23188;51.188;16.374;2024-01-25T20:14:03;14.70;;;6.00;;
37303;SDS011;23188;51.188;16.374;2024-01-25T20:18:06;19.00;;;7.30;;
37303;SDS011;23188;51.188;16.374;2024-01-25T20:22:10;16.80;;;5.90;;
37303;SDS011;23188;51.188;16.374;2024-01-25T20:26:13;20.30;;;7.10;;
37303;SDS011;23188;51.188;16.374;2024-01-25T20:30:20;12.00;;;4.70;;
37303;SDS011;23188;51.188;16.374;2024-01-25T20:34:24;17.80;;;6.00;;
37303;SDS011;23188;51.188;16.374;2024-01-25T20:38:27;12.70;;;4.80;;
37303;SDS011;23188;51.188;16.374;2024-01-25T20:42:30;11.60;;;3.80;;
37303;SDS011;23188;51.188;16.374;2024-01-25T20:46:33;17.60;;;10.00;;
37303;SDS011;23188;51.188;16.374;2024-01-25T20:50:36;27.40;;;9.90;;
37303;SDS011;23188;51.188;16.374;2024-01-25T20:54:41;24.40;;;9.40;;
37303;SDS011;23188;51.188;16.374;2024-01-25T20:58:44;27.50;;;5.70;;
37303;SDS011;23188;51.188;16.374;2024-01-25T21:02:49;13.80;;;5.60;;
37303;SDS011;23188;51.188;16.374;2024-01-25T21:06:52;16.60;;;6.90;;
37303;SDS011;23188;51.188;16.374;2024-01-25T21:10:56;14.10;;;6.00;;
37303;SDS011;23188;51.188;16.374;2024-01-25T21:14:59;15.20;;;6.80;;
37303;SDS011;23188;51.188;16.374;2024-01-25T21:19:03;20.40;;;6.30;;
37303;SDS011;23188;51.188;16.374;2024-01-25T21:23:06;13.00;;;5.50;;
37303;SDS011;23188;51.188;16.374;2024-01-25T21:27:10;10.90;;;5.00;;
37303;SDS011;23188;51.188;16.374;2024-01-25T21:31:13;15.30;;;4.60;;
37303;SDS011;23188;51.188;16.374;2024-01-25T21:35:16;7.70;;;4.70;;
37303;SDS011;23188;51.188;16.374;2024-01-25T21:39:19;11.40;;;5.90;;
37303;SDS011;23188;51.188;16.374;2024-01-25T21:43:22;19.30;;;6.60;;
37303;SDS011;23188;51.188;16.374;2024-01-25T21:47:26;9.10;;;4.90;;
37303;SDS011;23188;51.188;16.374;2024-01-25T21:51:29;9.00;;;5.60;;
37303;SDS011;23188;51.188;16.374;2024-01-25T21:55:34;8.00;;;4.70;;
37303;SDS011;23188;51.188;16.374;2024-01-25T21:59:37;53.20;;;8.20;;
37303;SDS011;23188;51.188;16.374;2024-01-25T22:03:41;20.80;;;7.50;;
37303;SDS011;23188;51.188;16.374;2024-01-25T22:07:45;13.90;;;5.80;;
37303;SDS011;23188;51.188;16.374;2024-01-25T22:11:49;14.40;;;5.70;;
37303;SDS011;23188;51.188;16.374;2024-01-25T22:15:55;15.70;;;7.00;;
37303;SDS011;23188;51.188;16.374;2024-01-25T22:19:58;13.90;;;6.20;;
37303;SDS011;23188;51.188;16.374;2024-01-25T22:24:02;20.10;;;5.70;;
37303;SDS011;23188;51.188;16.374;2024-01-25T22:28:05;15.50;;;5.10;;
37303;SDS011;23188;51.188;16.374;2024-01-25T22:32:08;43.40;;;6.40;;
37303;SDS011;23188;51.188;16.374;2024-01-25T22:36:12;13.20;;;5.40;;
37303;SDS011;23188;51.188;16.374;2024-01-25T22:40:15;13.50;;;6.60;;
37303;SDS011;23188;51.188;16.374;2024-01-25T22:44:18;15.00;;;5.30;;
37303;SDS011;23188;51.188;16.374;2024-01-25T22:48:21;16.60;;;5.90;;
37303;SDS011;23188;51.188;16.374;2024-01-25T22:52:24;13.50;;;5.60;;
37303;SDS011;23188;51.188;16.374;2024-01-25T22:56:28;8.60;;;4.20;;
37303;SDS011;23188;51.188;16.374;2024-01-25T23:00:31;11.40;;;4.80;;
37303;SDS011;23188;51.188;16.374;2024-01-25T23:04:35;14.20;;;5.40;;
37303;SDS011;23188;51.188;16.374;2024-01-25T23:08:39;16.00;;;7.00;;
37303;SDS011;23188;51.188;16.374;2024-01-25T23:12:43;15.30;;;6.30;;
37303;SDS011;23188;51.188;16.374;2024-01-25T23:16:46;11.40;;;3.30;;
37303;SDS011;23188;51.188;16.374;2024-01-25T23:20:49;9.60;;;4.20;;
37303;SDS011;23188;51.188;16.374;2024-01-25T23:24:53;7.50;;;3.60;;
37303;SDS011;23188;51.188;16.374;2024-01-25T23:28:56;7.90;;;3.10;;
37303;SDS011;23188;51.188;16.374;2024-01-25T23:32:59;10.00;;;5.70;;
37303;SDS011;23188;51.188;16.374;2024-01-25T23:37:02;12.50;;;5.50;;
37303;SDS011;23188;51.188;16.374;2024-01-25T23:41:05;10.50;;;4.40;;
37303;SDS011;23188;51.188;16.374;2024-01-25T23:45:08;13.30;;;3.80;;
37303;SDS011;23188;51.188;16.374;2024-01-25T23:49:13;7.40;;;4.80;;
37303;SDS011;23188;51.188;16.374;2024-01-25T23:53:19;7.60;;;3.80;;
37303;SDS011;23188;51.188;16.374;2024-01-25T23:57:22;20.00;;;7.10;;
